Time;durP1;ratioP1;P1;durP2;ratioP2;P2;SDS_P1;SDS_P2;PMS_P1;PMS_P2;Temp;Humidity;BMP_temperature;BMP_pressure;BME280_temperature;BME280_humidity;BME280_pressure;Samples;Min_cycle;Max_cycle;Signal;HPM_P1;HPM_P2
2022/06/14 00:00:53;;;;;;;5.78;4.63;;;13.40;99.90;;;14.09;79.45;98489.25;5258188;28;20298;-60
2022/06/14 00:03:30;;;;;;;5.70;5.20;;;13.40;99.90;;;14.10;80.79;98491.00;5262788;28;20196;-60
2022/06/14 00:06:07;;;;;;;6.05;4.68;;;13.40;99.90;;;14.15;80.51;98484.41;5265426;28;20192;-59
2022/06/14 00:08:42;;;;;;;7.55;5.05;;;13.30;99.90;;;14.10;81.40;98488.44;5264373;28;20207;-60
2022/06/14 00:11:18;;;;;;;5.90;5.30;;;13.30;99.90;;;14.05;81.33;98497.56;5261018;28;20228;-60
2022/06/14 00:13:53;;;;;;;5.57;5.07;;;13.30;99.90;;;14.06;81.58;98489.94;5263928;28;20191;-60
2022/06/14 00:16:29;;;;;;;5.75;4.57;;;13.40;99.90;;;14.06;80.60;98497.66;5264227;28;20721;-60
2022/06/14 00:19:04;;;;;;;6.32;5.47;;;13.40;99.90;;;14.00;82.40;98492.19;5255351;28;20553;-60
2022/06/14 00:21:38;;;;;;;5.53;4.90;;;13.30;99.90;;;13.93;81.23;98493.53;5258985;28;20223;-58
2022/06/14 00:24:13;;;;;;;8.48;4.72;;;13.20;99.90;;;13.91;81.07;98490.03;5265184;28;20211;-60
2022/06/14 00:26:46;;;;;;;5.80;5.20;;;13.10;99.90;;;13.88;80.88;98492.44;5264552;28;20231;-60
2022/06/14 00:29:19;;;;;;;6.28;5.32;;;13.10;99.90;;;13.88;80.54;98489.84;5264794;28;20199;-60
2022/06/14 00:31:57;;;;;;;5.55;4.95;;;13.10;99.90;;;13.89;81.46;98491.63;5262715;28;20274;-60
2022/06/14 00:34:31;;;;;;;7.10;5.22;;;13.20;99.90;;;13.84;82.65;98498.19;5264734;28;20688;-60
2022/06/14 00:37:05;;;;;;;5.68;4.72;;;13.10;99.90;;;13.80;81.83;98496.25;5258748;28;20231;-60
2022/06/14 00:39:39;;;;;;;5.70;5.18;;;13.10;99.90;;;13.78;80.89;98490.16;5264922;28;20241;-60
2022/06/14 00:42:19;;;;;;;5.40;4.90;;;13.00;99.90;;;13.66;80.64;98497.19;5263864;28;20760;-60
2022/06/14 00:45:29;;;;;;;5.15;4.63;;;12.80;99.90;;;13.69;80.43;98487.06;5262782;28;20555;-60
2022/06/14 00:48:08;;;;;;;5.32;4.95;;;12.80;99.90;;;13.59;79.54;98495.06;5257464;28;20564;-60
2022/06/14 00:50:47;;;;;;;5.75;4.95;;;12.70;99.90;;;13.56;81.53;98490.63;5264719;28;20297;-60
2022/06/14 00:53:26;;;;;;;6.10;5.13;;;12.70;99.90;;;13.54;83.40;98488.81;5260075;28;20249;-59
2022/06/14 00:56:05;;;;;;;5.60;5.00;;;12.80;99.90;;;13.56;83.33;98494.91;5268336;28;20225;-60
2022/06/14 00:58:44;;;;;;;6.40;5.50;;;12.90;99.90;;;13.55;82.24;98496.59;5257352;28;20238;-60
2022/06/14 01:01:23;;;;;;;5.90;4.80;;;12.80;99.90;;;13.56;83.10;98490.63;5265868;28;20664;-60
2022/06/14 01:03:59;;;;;;;5.53;5.05;;;12.90;99.90;;;13.57;82.67;98504.41;5264029;28;20208;-60
2022/06/14 01:06:48;;;;;;;6.20;5.60;;;12.90;99.90;;;13.57;82.12;98502.69;5265787;28;20776;-60
2022/06/14 01:09:27;;;;;;;5.93;5.43;;;12.90;99.90;;;13.55;82.85;98498.28;5264810;28;20605;-60
2022/06/14 01:12:06;;;;;;;6.20;5.65;;;12.80;99.90;;;13.55;82.69;98494.03;5262633;28;20235;-60
2022/06/14 01:14:47;;;;;;;7.45;5.43;;;12.90;99.90;;;13.49;82.42;98497.13;5263126;28;20192;-60
2022/06/14 01:17:21;;;;;;;6.10;5.22;;;12.90;99.90;;;13.41;82.06;98494.94;5264625;28;20572;-60
2022/06/14 01:19:55;;;;;;;5.55;5.05;;;12.70;99.90;;;13.43;82.63;98494.22;5262959;28;20199;-61
2022/06/14 01:22:32;;;;;;;6.10;5.60;;;12.70;99.90;;;13.41;81.98;98488.09;5264118;28;20289;-60
2022/06/14 01:25:06;;;;;;;5.70;5.20;;;12.70;99.90;;;13.40;82.87;98488.91;5263085;28;20223;-60
2022/06/14 01:27:42;;;;;;;6.07;5.57;;;12.70;99.90;;;13.48;82.29;98479.97;5263580;28;20280;-60
2022/06/14 01:30:21;;;;;;;6.85;5.22;;;12.70;99.90;;;13.41;83.12;98480.41;5264562;28;20234;-60
2022/06/14 01:32:59;;;;;;;6.43;5.80;;;12.70;99.90;;;13.27;82.21;98477.06;5264111;28;20231;-60
2022/06/14 01:35:36;;;;;;;6.38;5.32;;;12.50;99.90;;;13.23;83.16;98474.22;5262871;28;20265;-60
2022/06/14 01:38:14;;;;;;;6.32;5.78;;;12.50;99.90;;;13.31;83.58;98479.81;5264495;28;20734;-60
2022/06/14 01:41:00;;;;;;;5.70;5.10;;;12.50;99.90;;;13.31;84.21;98478.13;5256897;28;20203;-60
2022/06/14 01:44:03;;;;;;;6.05;5.55;;;12.50;99.90;;;13.32;83.49;98479.91;5259515;28;20279;-59
2022/06/14 01:46:46;;;;;;;6.20;5.47;;;12.60;99.90;;;13.20;84.32;98472.34;5261636;28;20245;-60
2022/06/14 01:52:31;;;;;;;8.52;5.93;;;12.40;99.90;;;13.16;84.30;98477.22;5259707;28;20199;-58
2022/06/14 01:55:20;;;;;;;5.88;5.28;;;12.40;99.90;;;13.14;84.52;98481.41;5264400;28;20274;-58
2022/06/14 01:58:01;;;;;;;6.25;5.25;;;12.40;99.90;;;13.14;84.40;98489.09;5262883;28;20219;-57
2022/06/14 02:00:41;;;;;;;5.95;5.10;;;12.40;99.90;;;13.13;83.94;98484.75;5264222;28;20600;-60
2022/06/14 02:06:26;;;;;;;6.30;5.70;;;12.40;99.90;;;13.07;83.96;98488.72;5263110;28;20277;-59
2022/06/14 02:09:07;;;;;;;6.88;5.97;;;12.40;99.90;;;13.06;85.09;98486.97;5263804;28;20253;-60
2022/06/14 02:11:42;;;;;;;6.57;5.55;;;12.40;99.90;;;13.02;83.34;98489.25;5263159;28;20241;-60
2022/06/14 02:14:22;;;;;;;6.28;5.75;;;12.40;99.90;;;12.99;84.31;98484.84;5263354;28;20249;-59
2022/06/14 02:17:01;;;;;;;5.80;5.32;;;12.20;99.90;;;12.95;84.10;98479.44;5260885;28;20219;-60
2022/06/14 02:19:39;;;;;;;6.15;5.55;;;12.20;99.90;;;12.91;83.86;98477.53;5263556;28;20222;-60
2022/06/14 02:22:17;;;;;;;6.55;5.90;;;12.10;99.90;;;12.75;84.40;98479.16;5264123;28;20259;-60
2022/06/14 02:24:54;;;;;;;6.43;5.93;;;12.00;99.90;;;12.76;86.03;98485.19;5261683;28;20257;-60
2022/06/14 02:27:34;;;;;;;6.70;6.10;;;12.10;99.90;;;12.74;84.50;98479.09;5263549;28;20215;-59
2022/06/14 02:30:12;;;;;;;6.57;5.75;;;12.00;99.90;;;12.70;85.91;98479.69;5268826;28;20219;-61
2022/06/14 02:32:53;;;;;;;6.85;6.15;;;12.00;99.90;;;12.57;84.37;98473.84;5267461;28;20688;-59
2022/06/14 02:35:33;;;;;;;6.75;6.15;;;11.90;99.90;;;12.59;85.78;98479.97;5268034;28;20272;-57
2022/06/14 02:38:15;;;;;;;6.65;6.15;;;11.80;99.90;;;12.60;85.55;98479.16;5268292;28;20262;-59
2022/06/14 02:40:54;;;;;;;7.20;5.93;;;11.80;99.90;;;12.60;86.98;98479.16;5267002;28;20200;-58
2022/06/14 02:43:33;;;;;;;6.00;5.47;;;11.90;99.90;;;12.67;85.79;98482.97;5263964;28;20226;-59
2022/06/14 02:46:13;;;;;;;9.38;7.15;;;11.90;99.90;;;12.72;85.93;98480.69;5267405;28;20200;-57
2022/06/14 02:48:51;;;;;;;6.70;6.10;;;12.00;99.90;;;12.75;85.52;98474.03;5267778;28;20232;-59
2022/06/14 02:51:30;;;;;;;6.65;5.93;;;12.00;99.90;;;12.72;85.40;98473.88;5263256;28;20224;-58
2022/06/14 02:54:10;;;;;;;6.70;6.10;;;12.00;99.90;;;12.67;85.78;98467.56;5267856;28;20225;-58
2022/06/14 02:56:51;;;;;;;6.70;5.80;;;12.00;99.90;;;12.59;85.60;98474.84;5267399;28;20215;-58
2022/06/14 02:59:31;;;;;;;6.72;6.13;;;11.90;99.90;;;12.45;84.34;98468.00;5263276;28;20227;-55
2022/06/14 03:02:10;;;;;;;7.13;6.15;;;11.70;99.90;;;12.46;86.67;98472.34;5267726;28;20234;-59
2022/06/14 03:04:49;;;;;;;6.82;6.00;;;11.80;99.90;;;12.43;87.50;98472.16;5267396;28;20282;-58
2022/06/14 03:07:27;;;;;;;9.63;6.60;;;11.80;99.90;;;12.29;84.63;98467.88;5266164;28;20249;-58
2022/06/14 03:10:01;;;;;;;6.95;6.32;;;11.60;99.90;;;12.18;86.10;98465.53;5266398;28;20207;-58
2022/06/14 03:12:44;;;;;;;6.63;6.13;;;11.60;99.90;;;12.23;87.65;98464.94;5267865;28;20200;-58
2022/06/14 03:15:32;;;;;;;7.25;6.38;;;11.60;99.90;;;12.33;86.98;98464.69;5268093;28;20227;-58
2022/06/14 03:18:16;;;;;;;8.63;6.20;;;11.60;99.90;;;12.31;85.86;98466.31;5266136;28;20314;-60
2022/06/14 03:20:56;;;;;;;7.38;5.95;;;11.60;99.90;;;12.24;86.47;98467.59;5267313;28;20227;-60
2022/06/14 03:23:40;;;;;;;6.00;5.50;;;11.50;99.90;;;12.12;86.69;98472.88;5259765;28;20621;-60
2022/06/14 03:26:23;;;;;;;7.22;6.50;;;11.40;99.90;;;12.13;87.06;98477.22;5262658;28;20207;-60
2022/06/14 03:29:01;;;;;;;6.40;5.90;;;11.40;99.90;;;12.26;87.15;98477.94;5263035;28;20200;-60
2022/06/14 03:31:41;;;;;;;7.38;6.43;;;11.50;99.90;;;12.26;87.47;98472.81;5266561;28;20644;-60
2022/06/14 03:34:22;;;;;;;7.93;6.18;;;11.50;99.90;;;12.31;87.89;98479.13;5265796;28;20206;-60
2022/06/14 03:36:56;;;;;;;6.50;5.90;;;11.60;99.90;;;12.39;87.71;98483.03;5274119;22;20239;-57
2022/06/14 03:39:34;;;;;;;6.65;6.05;;;11.70;99.90;;;12.39;87.62;98476.22;5187587;28;20364;-56
2022/06/14 03:42:11;;;;;;;6.68;6.07;;;11.80;99.90;;;12.38;86.12;98486.38;5179570;28;20256;-56
2022/06/14 03:44:44;;;;;;;7.82;6.00;;;11.70;99.90;;;12.38;86.56;98481.25;5184256;28;20244;-57
2022/06/14 03:47:23;;;;;;;7.15;6.47;;;11.70;99.90;;;12.36;86.95;98480.25;5196920;28;20723;-57
2022/06/14 03:50:05;;;;;;;6.85;6.13;;;11.70;99.90;;;12.32;86.87;98475.75;5218758;28;20301;-59
2022/06/14 03:53:05;;;;;;;7.10;6.38;;;11.70;99.90;;;12.34;87.00;98479.31;5210392;28;20279;-56
2022/06/14 03:55:55;;;;;;;7.25;6.28;;;11.70;99.90;;;12.35;86.59;98479.38;5223870;28;20206;-57
2022/06/14 03:58:51;;;;;;;7.38;6.68;;;11.60;99.90;;;12.42;87.19;98477.19;5208245;28;20218;-55
2022/06/14 04:01:30;;;;;;;7.88;6.78;;;11.80;99.90;;;12.42;87.73;98474.63;5193847;28;20248;-58
2022/06/14 04:04:23;;;;;;;6.97;6.30;;;11.80;99.90;;;12.48;86.27;98480.13;5179091;28;20648;-57
2022/06/14 04:07:11;;;;;;;6.85;6.22;;;11.80;99.90;;;12.46;86.81;98474.91;5177242;28;20671;-57
2022/06/14 04:09:51;;;;;;;7.10;6.38;;;11.70;99.90;;;12.35;85.27;98474.25;5181940;28;20291;-57
2022/06/14 04:12:34;;;;;;;7.22;6.07;;;11.70;99.90;;;12.31;86.28;98479.13;5180208;28;20195;-57
2022/06/14 04:15:19;;;;;;;7.82;7.13;;;11.60;99.90;;;12.29;85.21;98478.13;5181611;28;20959;-57
2022/06/14 04:18:34;;;;;;;7.15;6.45;;;11.60;99.90;;;12.31;85.61;98469.75;5181560;28;20230;-57
2022/06/14 04:21:11;;;;;;;9.57;6.93;;;11.50;99.90;;;12.28;86.35;98472.13;5179532;28;20251;-57
2022/06/14 04:23:54;;;;;;;8.88;6.63;;;11.60;99.90;;;12.38;87.63;98477.00;5179816;28;20216;-57
2022/06/14 04:26:37;;;;;;;7.20;6.50;;;11.70;99.90;;;12.42;87.81;98477.19;5183573;28;20254;-58
2022/06/14 04:29:23;;;;;;;7.38;6.78;;;11.80;99.90;;;12.51;86.74;98478.63;5181271;28;20203;-58
2022/06/14 04:32:03;;;;;;;7.25;6.60;;;11.90;99.90;;;12.57;86.72;98489.25;5181922;28;20639;-57
2022/06/14 04:34:43;;;;;;;7.07;6.47;;;11.90;99.90;;;12.61;86.58;98480.03;5176383;28;20244;-56
2022/06/14 04:37:26;;;;;;;7.70;7.00;;;11.90;99.90;;;12.61;86.04;98480.91;5185251;28;20771;-57
2022/06/14 04:40:04;;;;;;;7.80;7.10;;;11.90;99.90;;;12.72;85.84;98475.56;5179306;28;20280;-57
2022/06/14 04:42:40;;;;;;;7.63;6.80;;;12.00;99.90;;;12.91;85.51;98475.84;5198632;28;20682;-58
2022/06/14 04:45:20;;;;;;;7.50;6.80;;;12.30;99.90;;;13.54;84.37;98486.25;5178443;28;20256;-58
2022/06/14 04:47:59;;;;;;;7.65;6.82;;;12.90;99.90;;;14.33;79.71;98469.94;5174272;28;20226;-58
2022/06/14 04:50:37;;;;;;;6.97;5.80;;;13.70;99.90;;;15.07;76.55;98468.56;5178013;28;20199;-57
2022/06/14 04:53:17;;;;;;;6.70;5.97;;;14.30;99.90;;;15.59;72.41;98465.91;5178365;28;20632;-58
2022/06/14 04:55:58;;;;;;;6.93;6.22;;;14.80;99.90;;;16.30;70.39;98461.44;5206579;28;20199;-58
2022/06/14 04:58:37;;;;;;;6.63;5.95;;;15.30;99.90;;;16.83;67.80;98468.06;5178493;28;20246;-58
2022/06/14 05:01:16;;;;;;;7.50;6.32;;;15.70;99.90;;;17.19;65.22;98467.81;5182777;28;20229;-57
2022/06/14 05:03:57;;;;;;;6.60;5.85;;;16.00;99.90;;;17.61;65.51;98457.44;5172188;28;20203;-57
2022/06/14 05:06:37;;;;;;;6.68;6.00;;;16.40;99.90;;;17.94;62.36;98457.88;5187712;28;20222;-58
2022/06/14 05:09:16;;;;;;;6.40;5.90;;;16.60;99.90;;;18.36;61.15;98463.75;5189955;28;20215;-58
2022/06/14 05:11:56;;;;;;;7.00;6.30;;;16.80;99.90;;;18.74;59.67;98463.38;5201158;28;20194;-58
2022/06/14 05:14:34;;;;;;;6.43;5.32;;;17.20;99.90;;;18.80;59.12;98467.06;5209666;28;20635;-54
2022/06/14 05:17:12;;;;;;;6.50;5.90;;;17.30;99.90;;;19.11;57.92;98462.91;5203296;28;20215;-58
2022/06/14 05:19:51;;;;;;;6.13;5.60;;;17.50;99.90;;;19.42;57.18;98458.72;5176859;28;20652;-58
2022/06/14 05:22:32;;;;;;;5.97;5.38;;;17.60;99.90;;;19.35;56.97;98463.72;5186303;28;20687;-58
2022/06/14 05:25:08;;;;;;;6.20;5.60;;;17.60;99.90;;;19.35;56.21;98458.53;5191135;28;20203;-58
2022/06/14 05:27:55;;;;;;;8.18;5.70;;;17.70;99.90;;;19.31;56.64;98456.66;5201142;28;20682;-59
2022/06/14 05:30:52;;;;;;;5.93;5.40;;;17.80;99.90;;;19.62;55.38;98457.63;5179224;28;20274;-58
2022/06/14 05:33:37;;;;;;;8.32;6.03;;;17.90;99.90;;;19.65;55.62;98457.75;5207130;28;20231;-58
2022/06/14 05:36:15;;;;;;;6.50;5.65;;;17.90;99.90;;;20.10;54.32;98454.78;5172105;28;20647;-58
2022/06/14 05:38:55;;;;;;;6.95;5.78;;;18.20;99.90;;;20.11;55.23;98453.94;5179109;28;20230;-58
2022/06/14 05:41:35;;;;;;;6.75;5.15;;;18.40;99.90;;;20.45;52.94;98460.94;5176620;28;20210;-58
2022/06/14 05:44:12;;;;;;;7.03;6.10;;;18.50;99.70;;;20.67;53.10;98457.25;5178974;28;20199;-58
2022/06/14 05:46:50;;;;;;;9.23;6.20;;;18.50;99.90;;;20.52;53.91;98459.44;5192980;28;20309;-57
2022/06/14 05:49:26;;;;;;;6.50;5.93;;;18.70;99.90;;;20.81;52.75;98449.84;5175564;28;20198;-58
2022/06/14 05:52:08;;;;;;;6.03;5.43;;;18.70;99.90;;;20.86;53.29;98453.44;5174403;28;20198;-59
2022/06/14 05:54:47;;;;;;;6.38;5.78;;;19.00;99.60;;;21.25;51.29;98455.25;5185382;28;20201;-58
2022/06/14 05:57:29;;;;;;;7.13;5.80;;;19.30;98.50;;;20.91;52.68;98467.41;5204752;28;20646;-58
2022/06/14 06:00:10;;;;;;;6.22;5.63;;;19.30;98.80;;;21.20;52.51;98456.00;5180139;28;20199;-58
2022/06/14 06:02:49;;;;;;;6.07;5.57;;;19.40;98.50;;;21.51;52.20;98455.91;5182038;28;20214;-57
2022/06/14 06:05:29;;;;;;;6.15;5.65;;;19.80;98.60;;;21.92;50.35;98458.59;5199942;28;20198;-59
2022/06/14 06:08:09;;;;;;;5.97;5.30;;;19.90;98.10;;;21.90;50.16;98455.06;5188391;28;20254;-58
2022/06/14 06:10:47;;;;;;;6.68;6.07;;;20.00;97.50;;;20.98;53.67;98462.41;5187821;28;20199;-59
2022/06/14 06:13:25;;;;;;;7.05;6.30;;;19.70;98.20;;;22.13;47.70;98452.06;5180295;28;20201;-59
2022/06/14 06:16:06;;;;;;;5.65;5.15;;;20.00;96.20;;;22.68;47.43;98453.19;5179135;28;20305;-59
2022/06/14 06:18:46;;;;;;;6.60;5.95;;;20.30;96.50;;;22.89;46.40;98453.59;5183330;28;20613;-59
2022/06/14 06:21:31;;;;;;;6.88;6.18;;;20.60;95.30;;;22.93;46.52;98450.16;5178599;28;20233;-59
2022/06/14 06:24:10;;;;;;;6.10;5.63;;;20.60;95.20;;;23.34;45.71;98452.63;5183527;28;20199;-58
2022/06/14 06:26:51;;;;;;;6.75;5.93;;;20.70;95.20;;;23.55;44.84;98451.19;5175678;28;20199;-58
2022/06/14 06:29:39;;;;;;;6.43;5.70;;;20.90;94.60;;;23.82;44.81;98441.19;5187078;28;20202;-59
2022/06/14 06:32:12;;;;;;;7.53;6.15;;;21.30;94.60;;;23.92;43.80;98452.66;5188373;28;20195;-59
2022/06/14 06:34:47;;;;;;;6.30;5.68;;;21.50;93.70;;;24.35;43.06;98447.06;5183586;28;20207;-59
2022/06/14 06:37:27;;;;;;;7.55;5.90;;;21.90;92.70;;;24.73;41.32;98445.78;5180606;28;20687;-59
2022/06/14 06:40:05;;;;;;;6.88;5.50;;;22.00;92.40;;;24.89;42.45;98448.53;5178779;28;20238;-59
2022/06/14 06:42:43;;;;;;;8.38;5.55;;;22.00;93.20;;;25.33;41.25;98445.50;5188234;28;20692;-59
2022/06/14 06:45:22;;;;;;;5.97;5.43;;;22.40;92.00;;;25.37;39.79;98439.41;5175452;28;20198;-59
2022/06/14 06:48:00;;;;;;;7.72;5.57;;;22.70;90.90;;;25.45;40.62;98448.19;5183125;28;20605;-60
2022/06/14 06:50:37;;;;;;;5.53;5.00;;;22.80;91.30;;;25.96;39.40;98441.56;5179978;28;20198;-60
2022/06/14 06:53:15;;;;;;;6.30;5.38;;;23.30;90.50;;;26.19;38.71;98441.66;5181553;28;20841;-59
2022/06/14 06:56:00;;;;;;;8.57;5.47;;;23.70;88.70;;;25.86;38.86;98439.75;5178594;28;20202;-60
2022/06/14 06:58:38;;;;;;;5.93;5.32;;;23.70;88.00;;;25.45;39.80;98439.47;5177871;28;20252;-58
2022/06/14 07:01:16;;;;;;;7.13;5.70;;;23.30;89.70;;;25.92;38.67;98438.91;5183933;28;20206;-59
2022/06/14 07:03:57;;;;;;;5.07;4.60;;;23.60;88.80;;;26.42;39.15;98436.50;5212477;28;20243;-60
2022/06/14 07:06:39;;;;;;;5.75;5.07;;;23.90;89.70;;;26.14;38.80;98437.28;5184751;28;20226;-60
2022/06/14 07:09:19;;;;;;;5.95;5.05;;;23.90;87.40;;;26.57;38.08;98434.81;5177086;28;20504;-59
2022/06/14 07:12:03;;;;;;;7.15;5.57;;;24.20;87.10;;;26.91;37.99;98431.38;5178983;28;20259;-60
2022/06/14 07:14:51;;;;;;;5.68;5.18;;;24.50;86.60;;;27.02;36.92;98425.28;5192185;28;20304;-59
2022/06/14 07:17:33;;;;;;;5.80;5.13;;;24.90;84.50;;;26.91;37.18;98415.63;5180912;28;20222;-60
2022/06/14 07:20:15;;;;;;;5.47;4.93;;;24.90;84.20;;;27.21;36.26;98420.91;5191848;28;20203;-60
2022/06/14 07:22:53;;;;;;;5.80;4.93;;;24.80;84.00;;;27.44;36.43;98407.78;5179049;28;20245;-60
2022/06/14 07:25:30;;;;;;;6.43;5.57;;;24.90;84.80;;;27.85;36.89;98419.09;5204226;28;20202;-61
2022/06/14 07:28:09;;;;;;;6.82;5.10;;;25.40;84.50;;;27.78;35.69;98419.94;5175225;28;20675;-61
2022/06/14 07:30:49;;;;;;;6.13;4.63;;;25.60;82.40;;;28.46;35.05;98422.38;5201882;28;20659;-61
2022/06/14 07:33:27;;;;;;;5.30;4.80;;;25.90;82.00;;;28.20;35.67;98418.09;5190173;28;20195;-61
2022/06/14 07:36:10;;;;;;;6.55;5.28;;;25.90;82.10;;;27.90;36.44;98421.72;5188124;28;20232;-61
2022/06/14 07:38:51;;;;;;;5.38;4.80;;;25.90;82.40;;;28.52;35.49;98422.34;5186102;28;20734;-61
2022/06/14 07:41:34;;;;;;;4.90;4.38;;;26.10;81.20;;;28.67;34.94;98422.28;5178224;28;20222;-61
2022/06/14 07:44:20;;;;;;;5.30;4.80;;;26.00;81.60;;;29.00;33.09;98409.75;5184635;28;20194;-61
2022/06/14 07:47:02;;;;;;;4.70;4.30;;;26.50;79.20;;;29.45;31.79;98412.03;5180210;28;20222;-61
2022/06/14 07:49:54;;;;;;;5.35;4.60;;;26.80;76.80;;;29.66;31.92;98419.72;5185200;28;20576;-60
2022/06/14 07:52:35;;;;;;;6.10;4.80;;;26.80;77.00;;;29.51;30.30;98410.19;5179853;28;20275;-60
2022/06/14 07:55:15;;;;;;;4.45;4.05;;;26.90;72.80;;;29.81;30.60;98421.31;5180157;28;20199;-61
2022/06/14 07:57:53;;;;;;;6.28;4.80;;;26.80;72.80;;;30.00;29.20;98417.59;5185199;28;20218;-61
2022/06/14 08:03:44;;;;;;;5.15;4.22;;;27.20;71.30;;;29.90;28.24;98410.66;5132859;28;20701;-61
2022/06/14 08:06:23;;;;;;;5.22;4.18;;;27.20;69.20;;;30.33;28.30;98415.44;5122893;28;20632;-61
2022/06/14 08:09:03;;;;;;;5.25;4.22;;;27.50;71.00;;;30.39;28.60;98414.47;5159458;28;20658;-61
2022/06/14 08:11:45;;;;;;;4.75;4.18;;;27.70;69.40;;;30.26;28.21;98411.16;5188853;28;20547;-61
2022/06/14 08:14:24;;;;;;;5.10;4.18;;;27.40;69.00;;;30.63;29.08;98415.94;5188535;28;20199;-60
2022/06/14 08:17:01;;;;;;;5.63;4.22;;;27.60;71.40;;;30.02;29.42;98405.28;5186412;28;20223;-61
2022/06/14 08:19:42;;;;;;;7.75;4.47;;;27.40;70.30;;;30.41;29.91;98410.94;5186434;28;20724;-61
2022/06/14 08:22:23;;;;;;;5.55;4.10;;;27.50;71.30;;;30.56;29.41;98408.97;5183571;28;20243;-60
2022/06/14 08:25:01;;;;;;;5.40;4.00;;;28.00;69.70;;;30.50;28.37;98408.19;5195452;28;20241;-60
2022/06/14 08:27:46;;;;;;;6.07;3.90;;;28.10;67.70;;;30.56;27.93;98414.25;5196646;28;20317;-60
2022/06/14 08:30:26;;;;;;;4.03;3.63;;;28.50;65.50;;;30.28;27.70;98412.00;5195362;28;20248;-61
2022/06/14 08:33:03;;;;;;;4.18;3.75;;;28.00;65.50;;;29.92;27.77;98414.16;5200532;28;20260;-60
2022/06/14 08:35:43;;;;;;;5.28;4.28;;;27.90;65.60;;;29.73;28.99;98417.91;5195968;28;20194;-60
2022/06/14 08:38:22;;;;;;;4.22;3.83;;;27.50;66.60;;;29.22;29.10;98420.09;5197684;28;20226;-60
2022/06/14 08:41:26;;;;;;;5.93;4.03;;;27.50;67.60;;;29.23;29.97;98414.84;5188775;28;20237;-60
2022/06/14 08:44:06;;;;;;;5.80;4.13;;;27.60;68.10;;;29.55;29.34;98419.81;5189714;28;20206;-61
2022/06/14 08:47:03;;;;;;;6.28;3.95;;;27.80;67.40;;;29.35;28.41;98421.75;5195028;28;20218;-61
2022/06/14 08:49:50;;;;;;;4.25;3.85;;;27.90;65.80;;;28.87;30.30;98423.88;5190397;28;20726;-61
2022/06/14 08:52:55;;;;;;;6.03;4.47;;;27.70;67.60;;;28.91;29.41;98421.22;5191515;28;20212;-61
2022/06/14 08:55:59;;;;;;;4.97;3.92;;;27.70;66.30;;;28.94;31.52;98420.31;5191875;28;20711;-61
2022/06/14 08:59:21;;;;;;;7.68;4.13;;;27.60;67.90;;;29.17;30.43;98413.13;5194381;28;20215;-60
2022/06/14 09:02:22;;;;;;;5.25;3.90;;;27.60;66.20;;;29.15;29.43;98414.91;5202298;28;20294;-60
2022/06/14 09:05:30;;;;;;;4.80;3.72;;;27.80;66.30;;;29.02;30.17;98417.63;5202596;28;20333;-60
2022/06/14 09:08:49;;;;;;;6.15;3.65;;;27.80;66.50;;;28.61;29.48;98409.13;5218709;28;20764;-61
2022/06/14 09:12:29;;;;;;;5.43;3.53;;;27.40;63.80;;;28.87;28.58;98402.81;5191162;28;20251;-60
2022/06/14 09:15:55;;;;;;;3.78;3.45;;;27.30;63.40;;;28.85;28.32;98399.34;5146193;28;20302;-60
2022/06/14 09:18:56;;;;;;;5.60;3.45;;;27.50;63.80;;;28.70;28.27;98392.41;5178544;28;20284;-60
2022/06/14 09:21:46;;;;;;;4.93;3.80;;;27.40;62.70;;;28.62;27.63;98379.31;5176392;28;20670;-60
2022/06/14 09:24:53;;;;;;;5.32;3.90;;;27.40;62.40;;;27.95;30.17;98377.00;5180158;28;20275;-60
2022/06/14 09:28:11;;;;;;;4.32;3.30;;;27.00;64.10;;;27.83;28.56;98384.06;5178869;28;20217;-60
2022/06/14 09:31:10;;;;;;;3.78;3.35;;;26.60;63.20;;;27.95;28.49;98372.63;5177154;28;20585;-60
2022/06/14 09:34:22;;;;;;;3.47;3.15;;;26.70;62.80;;;27.63;29.66;98360.44;5189560;28;20205;-60
2022/06/14 09:37:23;;;;;;;5.88;3.22;;;26.80;62.20;;;27.96;28.51;98363.88;5226665;28;20261;-60
2022/06/14 09:40:42;;;;;;;4.07;3.20;;;26.80;61.60;;;28.18;27.96;98369.00;5181751;28;20206;-60
2022/06/14 09:43:49;;;;;;;4.55;3.30;;;27.00;60.50;;;28.11;29.77;98357.66;5180180;28;20203;-59
2022/06/14 09:46:44;;;;;;;4.10;3.30;;;27.00;64.70;;;28.20;28.43;98352.34;5179687;28;20214;-60
2022/06/14 09:49:54;;;;;;;4.07;3.53;;;27.10;63.00;;;28.27;28.14;98354.09;5182495;28;20214;-60
2022/06/14 09:53:03;;;;;;;4.00;3.60;;;27.20;61.80;;;28.29;29.53;98352.28;5180888;28;20705;-60
2022/06/14 09:56:04;;;;;;;4.80;3.83;;;27.10;63.60;;;27.96;29.36;98360.38;5180179;28;20222;-60
2022/06/14 09:59:15;;;;;;;5.20;3.83;;;26.80;63.10;;;27.94;30.38;98355.13;5175533;28;20217;-60
2022/06/14 10:02:03;;;;;;;5.72;4.00;;;26.80;64.10;;;28.03;29.89;98359.47;5200092;28;20247;-60
2022/06/14 10:05:06;;;;;;;4.35;3.58;;;27.10;65.40;;;27.61;29.44;98356.06;5173130;28;20202;-60
2022/06/14 10:08:21;;;;;;;4.68;3.58;;;26.60;62.80;;;27.46;29.39;98353.50;5177657;28;20225;-59
2022/06/14 10:11:21;;;;;;;4.95;3.67;;;26.40;62.90;;;27.45;30.16;98351.75;5182558;28;20624;-59
2022/06/14 10:14:18;;;;;;;4.47;3.60;;;26.40;63.90;;;27.45;28.91;98346.50;5187999;28;20210;-59
2022/06/14 10:17:20;;;;;;;3.92;3.28;;;26.40;61.20;;;27.21;29.26;98345.66;5236002;28;20658;-60
2022/06/14 10:20:28;;;;;;;5.13;3.60;;;26.40;61.00;;;26.81;29.93;98331.66;5211650;28;20243;-60
2022/06/14 10:23:20;;;;;;;5.05;4.20;;;26.00;63.00;;;26.92;30.28;98332.53;5221729;28;20326;-59
2022/06/14 10:29:18;;;;;;;4.20;3.80;;;25.90;62.90;;;26.97;30.16;98328.16;5201427;28;20229;-60
2022/06/14 10:32:19;;;;;;;5.13;3.70;;;26.10;63.40;;;27.00;31.03;98327.28;5215936;28;20280;-58
2022/06/14 10:35:01;;;;;;;4.47;3.90;;;26.20;63.50;;;27.01;30.72;98332.53;5189283;28;20202;-60
2022/06/14 10:38:06;;;;;;;5.20;3.75;;;26.10;64.10;;;26.84;30.89;98329.94;5173661;28;20312;-60
2022/06/14 10:40:51;;;;;;;6.13;3.88;;;25.90;64.10;;;26.88;32.65;98315.94;5177029;28;20642;-60
2022/06/14 10:43:33;;;;;;;4.72;4.22;;;26.10;67.30;;;26.56;32.88;98322.94;5178546;28;20237;-60
2022/06/14 10:46:18;;;;;;;4.97;3.72;;;25.70;67.20;;;26.75;30.68;98314.19;5180734;28;20201;-60
2022/06/14 10:49:16;;;;;;;5.38;3.65;;;25.90;63.80;;;26.67;31.26;98315.94;5183444;28;20218;-60
2022/06/14 10:52:14;;;;;;;4.57;3.80;;;25.80;63.80;;;26.62;30.67;98309.81;5179798;28;20206;-60
2022/06/14 10:55:17;;;;;;;4.20;3.60;;;25.70;63.20;;;26.52;31.68;98312.41;5180511;28;20202;-60
2022/06/14 10:58:16;;;;;;;4.68;3.72;;;25.60;64.60;;;26.44;31.07;98303.66;5186244;28;20327;-60
2022/06/14 11:00:57;;;;;;;4.55;4.10;;;25.60;63.50;;;26.43;31.02;98309.75;5205128;28;20195;-60
2022/06/14 11:03:51;;;;;;;4.13;3.67;;;25.60;63.60;;;26.13;31.35;98307.13;5172777;28;20210;-60
2022/06/14 11:07:09;;;;;;;4.72;3.88;;;25.40;63.50;;;26.09;32.67;98305.34;5184947;28;20245;-59
2022/06/14 11:10:12;;;;;;;4.47;4.00;;;25.30;66.40;;;26.39;30.98;98291.44;5206018;28;20682;-60
2022/06/14 11:12:57;;;;;;;4.43;3.67;;;25.60;63.80;;;26.31;32.26;98288.78;5197158;28;20206;-60
2022/06/14 11:15:39;;;;;;;5.18;4.15;;;25.60;65.50;;;26.46;32.83;98301.91;5207298;28;20201;-60
2022/06/14 11:18:45;;;;;;;4.80;3.58;;;25.60;66.00;;;26.61;30.63;98289.69;5187150;28;20306;-60
2022/06/14 11:21:40;;;;;;;4.25;3.63;;;25.80;64.70;;;26.61;30.76;98292.31;5180103;28;20237;-60
2022/06/14 11:24:21;;;;;;;7.10;3.88;;;25.90;63.00;;;26.25;31.30;98286.16;5191272;28;20236;-60
2022/06/14 11:27:17;;;;;;;4.07;3.50;;;25.50;62.80;;;26.09;31.71;98279.13;5182202;28;20694;-59
2022/06/14 11:30:06;;;;;;;4.53;3.80;;;25.20;64.30;;;26.07;31.58;98271.28;5178648;28;20603;-60
2022/06/14 11:32:49;;;;;;;4.95;4.07;;;25.20;64.70;;;25.99;32.89;98273.03;5184048;28;20202;-60
2022/06/14 11:35:47;;;;;;;6.03;4.22;;;25.10;66.50;;;26.03;32.94;98266.91;5191358;28;20659;-60
2022/06/14 11:38:42;;;;;;;4.57;3.83;;;25.10;66.60;;;26.06;37.79;98266.91;5181173;28;20230;-60
2022/06/14 11:41:20;;;;;;;4.80;4.30;;;25.20;74.60;;;26.13;33.53;98265.19;5180251;28;20190;-60
2022/06/14 11:44:11;;;;;;;4.72;4.32;;;25.20;69.40;;;26.05;34.39;98266.03;5182046;28;20284;-60
2022/06/14 11:46:53;;;;;;;6.43;4.45;;;25.20;69.00;;;25.95;34.68;98259.00;5181942;28;20243;-59